KIND/IND METAR and TAF weather

Enter ICAO airport designator
Station Type Date Time Source
KIND METAR 2021/05/15 23:54 UTC NOAA

KIND 152354Z 27004KT 10SM OVC090 18/05 A3017 RMK AO2 SLP215 60000 T01830050 10222 20183 56008


Station Type Date Time Source
KIND Decoded METAR 2021/05/15 23:54 UTC NOAA

INDIANAPOLIS INTERNATIONAL AIRPORT , IN, United States (KIND) 39-43N 86-17W 242M
May 15, 2021 - 07:54 PM EDT / 2021.05.15 2354 UTC
Wind: from the W (270 degrees) at 5 MPH (4 KT):0
Visibility: 10 mile(s):0
Sky conditions: overcast
Temperature: 64.9 F (18.3 C)
Dew Point: 41.0 F (5.0 C)
Relative Humidity: 41%
Pressure (altimeter): 30.17 in. Hg (1021 hPa)
Pressure tendency: 0.02 inches (0.8 hPa) lower than three hours ago
ob: KIND 152354Z 27004KT 10SM OVC090 18/05 A3017 RMK AO2 SLP215 60000 T01830050 10222 20183 56008
cycle: 0

Station Type Date Time Source
KIND TAF 2021/05/15 20:21 UTC NOAA

TAF
AMD KIND 152019Z 1520/1624 21009KT P6SM BKN090
FM160000 18005KT P6SM VCSH OVC070
FM160800 VRB04KT P6SM VCSH BKN060
FM161300 15005KT P6SM BKN030
FM161700 16008KT P6SM BKN060

Example: see airport list